Time;durP1;ratioP1;P1;durP2;ratioP2;P2;SDS_P1;SDS_P2;PMS_P1;PMS_P2;Temp;Humidity;BMP_temperature;BMP_pressure;BME280_temperature;BME280_humidity;BME280_pressure;Samples;Min_cycle;Max_cycle;Signal;HPM_P1;HPM_P2
2021/11/02 00:00:12;;;;;;;14.77;5.28;;;;;;;;;;5073950;28;20400;-68
2021/11/02 00:02:43;;;;;;;17.65;5.18;;;;;;;;;;5073890;28;20475;-67
2021/11/02 00:05:09;;;;;;;17.55;4.82;;;;;;;;;;5073731;28;20023;-67
2021/11/02 00:07:36;;;;;;;18.45;5.68;;;;;;;;;;5092370;28;20020;-68
2021/11/02 00:10:03;;;;;;;16.95;7.35;;;;;;;;;;5074233;28;20028;-68
2021/11/02 00:12:30;;;;;;;15.77;6.70;;;;;;;;;;5073911;28;20016;-68
2021/11/02 00:14:56;;;;;;;17.80;6.10;;;;;;;;;;5073936;28;20495;-68
2021/11/02 00:17:25;;;;;;;17.10;6.15;;;;;;;;;;5092270;28;20020;-68
2021/11/02 00:19:55;;;;;;;18.35;5.78;;;;;;;;;;5092032;28;20024;-68
2021/11/02 00:22:22;;;;;;;17.75;6.05;;;;;;;;;;5091821;28;20403;-68
2021/11/02 00:27:21;;;;;;;20.50;6.53;;;;;;;;;;5091789;28;20033;-68
2021/11/02 00:29:48;;;;;;;17.67;6.20;;;;;;;;;;5091647;28;20043;-68
2021/11/02 00:32:14;;;;;;;17.92;5.78;;;;;;;;;;5073690;28;20503;-68
2021/11/02 00:34:40;;;;;;;18.08;6.18;;;;;;;;;;5073508;28;20028;-68
2021/11/02 00:37:06;;;;;;;12.68;4.88;;;;;;;;;;5092152;28;20051;-67
2021/11/02 00:39:32;;;;;;;14.20;5.28;;;;;;;;;;5092046;28;20024;-67
2021/11/02 00:41:59;;;;;;;17.42;5.55;;;;;;;;;;5073764;28;20386;-68
2021/11/02 00:44:24;;;;;;;15.02;5.05;;;;;;;;;;5073474;28;20024;-68
2021/11/02 00:46:51;;;;;;;15.50;5.20;;;;;;;;;;5092341;28;20365;-68
2021/11/02 00:49:18;;;;;;;15.40;5.30;;;;;;;;;;5073786;28;20097;-69
2021/11/02 00:51:45;;;;;;;14.93;5.93;;;;;;;;;;5073139;28;20028;-67
2021/11/02 00:54:12;;;;;;;19.92;6.55;;;;;;;;;;5073437;28;20127;-68
2021/11/02 00:56:38;;;;;;;15.82;5.25;;;;;;;;;;5092041;28;20023;-68
2021/11/02 00:59:04;;;;;;;14.43;5.32;;;;;;;;;;5092168;28;20471;-68
2021/11/02 01:01:30;;;;;;;17.33;5.57;;;;;;;;;;5073603;28;20035;-67
2021/11/02 01:03:57;;;;;;;17.75;6.22;;;;;;;;;;5091466;28;20020;-66
2021/11/02 01:06:23;;;;;;;15.77;6.07;;;;;;;;;;5073408;28;20024;-67
2021/11/02 01:08:49;;;;;;;16.80;5.72;;;;;;;;;;5091604;28;20026;-68
2021/11/02 01:11:17;;;;;;;18.30;5.63;;;;;;;;;;5073436;28;20039;-66
2021/11/02 01:13:43;;;;;;;14.23;5.68;;;;;;;;;;5073278;28;20024;-67
2021/11/02 01:16:09;;;;;;;17.30;5.25;;;;;;;;;;5073389;28;20127;-67
2021/11/02 01:18:36;;;;;;;14.45;5.38;;;;;;;;;;5091334;28;20024;-67
2021/11/02 01:21:02;;;;;;;20.27;5.82;;;;;;;;;;5091796;28;20036;-67
2021/11/02 01:23:32;;;;;;;16.08;5.75;;;;;;;;;;5091074;28;20483;-67
2021/11/02 01:25:58;;;;;;;15.35;5.57;;;;;;;;;;5073137;28;20181;-67
2021/11/02 01:28:25;;;;;;;16.70;5.43;;;;;;;;;;5091309;28;20024;-67
2021/11/02 01:30:51;;;;;;;13.43;5.10;;;;;;;;;;5091346;28;20080;-68
2021/11/02 01:33:17;;;;;;;15.82;5.63;;;;;;;;;;5072955;28;20028;-68
2021/11/02 01:35:43;;;;;;;14.57;5.50;;;;;;;;;;5073049;28;20119;-66
2021/11/02 01:38:10;;;;;;;15.25;5.47;;;;;;;;;;5091356;28;20107;-67
2021/11/02 01:40:36;;;;;;;15.32;5.18;;;;;;;;;;5094158;28;20031;-67
2021/11/02 01:43:02;;;;;;;17.95;5.80;;;;;;;;;;5089942;28;20016;-66
2021/11/02 01:45:29;;;;;;;16.13;5.80;;;;;;;;;;5076375;28;20376;-68
2021/11/02 01:47:55;;;;;;;16.00;5.28;;;;;;;;;;5094839;28;20052;-68
2021/11/02 01:50:21;;;;;;;16.75;5.72;;;;;;;;;;5076396;28;20063;-68
2021/11/02 01:52:47;;;;;;;16.20;5.60;;;;;;;;;;5076602;28;20027;-68
2021/11/02 01:55:14;;;;;;;16.95;5.65;;;;;;;;;;5094609;28;20028;-68
2021/11/02 01:57:41;;;;;;;14.98;5.75;;;;;;;;;;5076546;28;20419;-68
2021/11/02 02:00:10;;;;;;;17.55;5.95;;;;;;;;;;5076347;28;20027;-67
2021/11/02 02:02:36;;;;;;;;;;;;;;;;;;5090173;28;20074;-68
2021/11/02 02:05:05;;;;;;;15.18;5.63;;;;;;;;;;5094293;28;19908;-68
2021/11/02 02:08:09;;;;;;;17.00;5.78;;;;;;;;;;5094545;28;20020;-68
2021/11/02 02:10:54;;;;;;;14.43;5.75;;;;;;;;;;5012461;28;20385;-67
2021/11/02 02:13:38;;;;;;;16.55;5.50;;;;;;;;;;5011768;28;20038;-67
2021/11/02 02:16:12;;;;;;;13.90;5.30;;;;;;;;;;5071398;28;20052;-67
2021/11/02 02:18:41;;;;;;;17.35;5.82;;;;;;;;;;5094377;28;20063;-67
2021/11/02 02:21:16;;;;;;;14.75;5.13;;;;;;;;;;5093968;28;20027;-67
2021/11/02 02:24:02;;;;;;;16.98;5.00;;;;;;;;;;5093907;28;20515;-67
2021/11/02 02:26:46;;;;;;;16.23;5.53;;;;;;;;;;5094061;28;20471;-68
2021/11/02 02:29:13;;;;;;;15.77;5.13;;;;;;;;;;5094138;28;20056;-68
2021/11/02 02:31:41;;;;;;;16.50;5.07;;;;;;;;;;5075730;28;20051;-68
2021/11/02 02:34:11;;;;;;;15.00;5.20;;;;;;;;;;5093769;28;20066;-68
2021/11/02 02:36:38;;;;;;;15.75;4.95;;;;;;;;;;5075880;28;20024;-67
2021/11/02 02:39:05;;;;;;;18.30;5.95;;;;;;;;;;5094154;28;20035;-67
2021/11/02 02:41:32;;;;;;;16.17;5.43;;;;;;;;;;5093722;28;20065;-68
2021/11/02 02:43:59;;;;;;;13.48;5.00;;;;;;;;;;5093589;28;20030;-67
2021/11/02 02:46:26;;;;;;;17.90;5.38;;;;;;;;;;5093683;28;20077;-68
2021/11/02 02:48:54;;;;;;;18.83;5.93;;;;;;;;;;5075523;28;20487;-67
2021/11/02 02:51:20;;;;;;;16.55;5.43;;;;;;;;;;5074683;28;20063;-66
2021/11/02 02:53:46;;;;;;;17.38;5.45;;;;;;;;;;5093416;28;20043;-66
2021/11/02 02:56:13;;;;;;;13.85;4.70;;;;;;;;;;5093581;28;20372;-67
2021/11/02 02:58:42;;;;;;;16.48;5.20;;;;;;;;;;5093449;28;20494;-67
2021/11/02 03:01:09;;;;;;;16.95;5.07;;;;;;;;;;5093435;28;20399;-66
2021/11/02 03:03:37;;;;;;;18.20;6.75;;;;;;;;;;5074886;28;20142;-67
2021/11/02 03:06:04;;;;;;;15.70;5.20;;;;;;;;;;5093629;28;20036;-67
2021/11/02 03:08:30;;;;;;;18.90;5.30;;;;;;;;;;5093442;28;20028;-66
2021/11/02 03:10:58;;;;;;;18.15;4.95;;;;;;;;;;5075080;28;20527;-67
2021/11/02 03:13:25;;;;;;;17.98;5.38;;;;;;;;;;5093024;28;20020;-67
2021/11/02 03:16:03;;;;;;;14.93;4.75;;;;;;;;;;5093094;28;20027;-67
2021/11/02 03:59:35;;;;;;;18.52;5.50;;;;;;;;;;5093503;28;20034;-67
2021/11/02 04:24:40;;;;;;;17.38;5.63;;;;;;;;;;5092239;28;20612;-68
2021/11/02 05:48:38;;;;;;;20.75;5.55;;;;;;;;;;5095520;28;20031;-62
2021/11/02 05:51:31;;;;;;;14.95;5.53;;;;;;;;;;5094881;28;20031;-63
2021/11/02 05:59:40;;;;;;;16.35;5.90;;;;;;;;;;5085276;28;20441;-63
2021/11/02 06:05:04;;;;;;;;;;;;;;;;;;;;;
2021/11/02 06:10:17;;;;;;;17.05;6.13;;;;;;;;;;5094434;28;20024;-63
2021/11/02 06:29:24;;;;;;;19.92;5.82;;;;;;;;;;5073652;28;20550;-64
2021/11/02 06:31:57;;;;;;;17.42;6.00;;;;;;;;;;5072995;28;20068;-64
2021/11/02 06:39:47;;;;;;;18.95;7.03;;;;;;;;;;5093277;28;20064;-64
2021/11/02 06:45:31;;;;;;;18.25;6.72;;;;;;;;;;5083483;28;20031;-64
2021/11/02 08:46:02;;;;;;;19.38;7.20;;;;;;;;;;5091676;28;20039;-67
2021/11/02 08:48:29;;;;;;;20.88;6.95;;;;;;;;;;5074387;28;20034;-67
2021/11/02 08:50:56;;;;;;;15.30;6.38;;;;;;;;;;5099644;28;20020;-68
2021/11/02 08:53:23;;;;;;;16.38;6.90;;;;;;;;;;5098811;28;20093;-68
2021/11/02 08:55:51;;;;;;;17.17;7.00;;;;;;;;;;5081770;28;20088;-66
2021/11/02 08:58:18;;;;;;;16.13;6.40;;;;;;;;;;5099293;28;20031;-67
2021/11/02 09:00:44;;;;;;;17.75;6.70;;;;;;;;;;5098772;28;20059;-69
2021/11/02 09:03:20;;;;;;;18.00;7.20;;;;;;;;;;5080054;28;20031;-67
2021/11/02 09:05:50;;;;;;;19.48;7.60;;;;;;;;;;5080603;28;20114;-68
2021/11/02 09:08:17;;;;;;;30.35;8.48;;;;;;;;;;5098596;28;20476;-69
2021/11/02 09:10:43;;;;;;;17.30;7.20;;;;;;;;;;5080047;28;20024;-67
2021/11/02 09:13:10;;;;;;;17.30;7.53;;;;;;;;;;5097132;28;20031;-67
2021/11/02 09:15:37;;;;;;;19.80;7.22;;;;;;;;;;5099141;28;20491;-69
2021/11/02 09:18:04;;;;;;;16.42;7.40;;;;;;;;;;5099518;28;20491;-69
2021/11/02 09:20:30;;;;;;;16.42;7.13;;;;;;;;;;5099323;28;20024;-70
2021/11/02 09:22:56;;;;;;;16.88;7.20;;;;;;;;;;5098663;28;20020;-69
2021/11/02 09:25:23;;;;;;;15.55;7.28;;;;;;;;;;5099114;28;20069;-69
2021/11/02 09:27:49;;;;;;;14.88;6.97;;;;;;;;;;5098485;28;20368;-68
2021/11/02 09:30:17;;;;;;;20.92;7.93;;;;;;;;;;5099389;28;20472;-66
2021/11/02 09:32:44;;;;;;;17.38;8.30;;;;;;;;;;5072521;28;20059;-68
2021/11/02 09:35:11;;;;;;;17.52;7.32;;;;;;;;;;5060345;28;20045;-67
2021/11/02 09:37:38;;;;;;;17.23;7.85;;;;;;;;;;5070710;28;20027;-68
2021/11/02 09:40:26;;;;;;;16.27;7.30;;;;;;;;;;5099504;28;20052;-67
2021/11/02 09:42:54;;;;;;;18.00;7.25;;;;;;;;;;5080759;28;20077;-69
2021/11/02 09:45:23;;;;;;;17.42;7.43;;;;;;;;;;5098417;28;20074;-68
2021/11/02 09:47:55;;;;;;;16.45;7.85;;;;;;;;;;5098130;28;20036;-67
2021/11/02 09:50:36;;;;;;;17.88;7.78;;;;;;;;;;5080945;28;20116;-70
2021/11/02 09:53:22;;;;;;;17.98;7.53;;;;;;;;;;5063611;28;20024;-68
2021/11/02 09:55:48;;;;;;;15.73;7.22;;;;;;;;;;5078439;28;20070;-68
2021/11/02 09:58:33;;;;;;;17.60;7.57;;;;;;;;;;5079923;28;20448;-68
2021/11/02 10:01:03;;;;;;;20.58;8.50;;;;;;;;;;5096965;28;20032;-72
2021/11/02 10:03:36;;;;;;;16.70;7.60;;;;;;;;;;5095439;28;20396;-68
2021/11/02 10:06:05;;;;;;;17.30;7.47;;;;;;;;;;5069188;28;20031;-66
2021/11/02 10:08:33;;;;;;;15.32;7.65;;;;;;;;;;5086316;28;20008;-67
2021/11/02 10:11:19;;;;;;;16.10;7.50;;;;;;;;;;5086541;28;20032;-69
2021/11/02 10:13:47;;;;;;;17.33;7.82;;;;;;;;;;5068676;28;20484;-69
2021/11/02 10:16:24;;;;;;;15.23;7.38;;;;;;;;;;5069048;28;20024;-68
2021/11/02 10:19:02;;;;;;;18.63;7.90;;;;;;;;;;5087341;28;20020;-68
2021/11/02 10:21:46;;;;;;;16.27;6.93;;;;;;;;;;5090994;28;20028;-69
2021/11/02 10:24:27;;;;;;;18.50;7.93;;;;;;;;;;5085176;28;20066;-65
2021/11/02 10:27:16;;;;;;;17.52;8.65;;;;;;;;;;5089790;28;20024;-68
2021/11/02 10:29:54;;;;;;;17.00;7.85;;;;;;;;;;5095366;28;20019;-68
2021/11/02 10:32:24;;;;;;;14.98;8.05;;;;;;;;;;5077882;28;20024;-68
2021/11/02 10:35:04;;;;;;;16.33;7.93;;;;;;;;;;5080965;28;20044;-67
2021/11/02 10:37:51;;;;;;;24.73;8.70;;;;;;;;;;5099828;28;20491;-68
2021/11/02 10:40:40;;;;;;;17.13;7.60;;;;;;;;;;5098568;28;20032;-68
2021/11/02 10:43:24;;;;;;;14.70;7.45;;;;;;;;;;5078510;28;20107;-66
2021/11/02 10:46:01;;;;;;;15.10;7.03;;;;;;;;;;5059063;28;20025;-67
2021/11/02 10:48:38;;;;;;;15.68;7.43;;;;;;;;;;5058693;28;20020;-67
2021/11/02 10:51:05;;;;;;;16.00;7.55;;;;;;;;;;5058207;28;20119;-68
2021/11/02 10:53:31;;;;;;;17.83;7.93;;;;;;;;;;5080444;28;20063;-68
2021/11/02 10:55:57;;;;;;;15.73;7.70;;;;;;;;;;5083513;22;20484;-71
2021/11/02 10:58:43;;;;;;;16.70;7.18;;;;;;;;;;5056378;28;20031;-70
2021/11/02 11:01:10;;;;;;;21.38;8.90;;;;;;;;;;5059241;28;20119;-69
2021/11/02 11:03:37;;;;;;;15.45;7.15;;;;;;;;;;5072005;28;20097;-69
2021/11/02 11:06:05;;;;;;;20.45;7.70;;;;;;;;;;5070282;28;20021;-68
2021/11/02 11:08:35;;;;;;;16.10;7.15;;;;;;;;;;5070729;28;20480;-68
2021/11/02 11:11:07;;;;;;;16.30;7.47;;;;;;;;;;5070793;28;20433;-69
2021/11/02 11:13:33;;;;;;;15.90;7.63;;;;;;;;;;5069956;28;20048;-69
2021/11/02 11:16:06;;;;;;;15.38;7.88;;;;;;;;;;5070359;28;20078;-68
2021/11/02 11:18:41;;;;;;;15.48;7.38;;;;;;;;;;5072037;28;20082;-69
2021/11/02 11:21:08;;;;;;;17.42;9.60;;;;;;;;;;5071138;28;20079;-69
2021/11/02 11:23:36;;;;;;;16.50;8.27;;;;;;;;;;5071127;28;20036;-69
2021/11/02 11:26:05;;;;;;;19.77;8.63;;;;;;;;;;5070189;28;20052;-68
2021/11/02 11:28:42;;;;;;;16.17;8.45;;;;;;;;;;5069754;28;20435;-68
2021/11/02 11:31:08;;;;;;;17.27;9.13;;;;;;;;;;5070059;28;20021;-68
2021/11/02 11:33:34;;;;;;;16.08;9.48;;;;;;;;;;5069784;28;20043;-69
2021/11/02 11:36:01;;;;;;;17.83;10.68;;;;;;;;;;5071312;28;20471;-69
2021/11/02 11:38:31;;;;;;;17.60;10.18;;;;;;;;;;5071391;28;20028;-70
2021/11/02 11:40:57;;;;;;;16.50;10.55;;;;;;;;;;5070122;28;20461;-69
2021/11/02 11:43:25;;;;;;;16.95;10.73;;;;;;;;;;5070948;28;20686;-69
2021/11/02 11:45:54;;;;;;;17.55;11.00;;;;;;;;;;5071130;28;20036;-69
2021/11/02 11:48:21;;;;;;;19.08;10.95;;;;;;;;;;5069650;28;20063;-69
2021/11/02 11:50:48;;;;;;;19.60;10.85;;;;;;;;;;5071135;28;20380;-69
2021/11/02 11:53:18;;;;;;;17.40;10.50;;;;;;;;;;5068789;28;20031;-69
2021/11/02 11:55:45;;;;;;;15.90;10.05;;;;;;;;;;5070098;28;20024;-70
2021/11/02 11:58:11;;;;;;;16.70;10.30;;;;;;;;;;5071515;28;20028;-70
2021/11/02 12:00:39;;;;;;;17.30;9.48;;;;;;;;;;5069443;28;20024;-69
2021/11/02 12:03:16;;;;;;;21.30;9.73;;;;;;;;;;5070714;28;20027;-70
2021/11/02 12:05:46;;;;;;;15.57;9.10;;;;;;;;;;5070437;28;20044;-69
2021/11/02 12:08:19;;;;;;;14.95;9.30;;;;;;;;;;5070704;28;20025;-70
2021/11/02 12:10:45;;;;;;;15.07;8.88;;;;;;;;;;5068633;28;20024;-70
2021/11/02 12:13:13;;;;;;;15.35;8.70;;;;;;;;;;5068553;28;20032;-72
2021/11/02 12:15:46;;;;;;;15.07;8.40;;;;;;;;;;5070009;28;20021;-71
2021/11/02 12:18:15;;;;;;;15.75;8.45;;;;;;;;;;5070027;28;20433;-70
2021/11/02 12:20:42;;;;;;;16.38;8.80;;;;;;;;;;5068860;28;20037;-70
2021/11/02 12:23:14;;;;;;;15.10;8.40;;;;;;;;;;5068455;28;20502;-70
2021/11/02 12:25:42;;;;;;;16.30;8.40;;;;;;;;;;5070019;28;20073;-69
2021/11/02 12:28:22;;;;;;;16.17;8.13;;;;;;;;;;5069270;28;20031;-70
2021/11/02 12:30:48;;;;;;;17.15;8.65;;;;;;;;;;5069229;28;20396;-70
2021/11/02 12:33:15;;;;;;;13.90;8.07;;;;;;;;;;5070116;28;20438;-69
2021/11/02 12:35:46;;;;;;;15.43;8.45;;;;;;;;;;5068910;28;20028;-68
2021/11/02 12:38:12;;;;;;;16.00;8.65;;;;;;;;;;5069019;28;20120;-71
2021/11/02 12:40:45;;;;;;;16.48;8.30;;;;;;;;;;5070629;28;20029;-68
2021/11/02 12:43:21;;;;;;;19.40;8.93;;;;;;;;;;5070484;28;20520;-71
2021/11/02 12:45:48;;;;;;;16.30;8.85;;;;;;;;;;5070212;28;20035;-70
2021/11/02 12:48:14;;;;;;;13.90;8.18;;;;;;;;;;5070063;28;20020;-69
2021/11/02 12:50:40;;;;;;;17.05;7.82;;;;;;;;;;5070299;28;20055;-70
2021/11/02 12:53:07;;;;;;;15.88;8.38;;;;;;;;;;5068864;28;20048;-68
2021/11/02 12:55:34;;;;;;;16.13;8.40;;;;;;;;;;5068963;28;20480;-71
2021/11/02 12:58:13;;;;;;;13.70;7.85;;;;;;;;;;5070727;28;20025;-70
2021/11/02 13:00:50;;;;;;;16.02;7.65;;;;;;;;;;5070016;28;20029;-70
2021/11/02 13:03:20;;;;;;;15.75;7.70;;;;;;;;;;5068623;28;20016;-67
2021/11/02 13:06:07;;;;;;;15.70;7.88;;;;;;;;;;5069999;28;20016;-68
2021/11/02 13:08:54;;;;;;;15.20;7.97;;;;;;;;;;5070606;28;20025;-69
2021/11/02 13:11:21;;;;;;;15.40;7.97;;;;;;;;;;5068620;28;20021;-71
2021/11/02 13:13:58;;;;;;;16.52;8.27;;;;;;;;;;5069895;28;20025;-67
2021/11/02 13:16:24;;;;;;;15.93;8.52;;;;;;;;;;5068534;28;20468;-69
2021/11/02 13:18:51;;;;;;;16.90;8.13;;;;;;;;;;5069382;28;20476;-68
2021/11/02 13:21:21;;;;;;;15.52;8.25;;;;;;;;;;5069046;28;20345;-68
2021/11/02 13:23:55;;;;;;;14.98;7.95;;;;;;;;;;5068171;28;20044;-69
2021/11/02 13:26:22;;;;;;;17.98;8.50;;;;;;;;;;5069921;28;20047;-69
2021/11/02 13:28:51;;;;;;;15.05;8.15;;;;;;;;;;5068363;28;20123;-68
2021/11/02 13:31:31;;;;;;;17.02;8.15;;;;;;;;;;5070084;28;20021;-69
2021/11/02 13:34:02;;;;;;;19.00;9.32;;;;;;;;;;5068125;28;20128;-71
2021/11/02 13:36:28;;;;;;;16.77;8.90;;;;;;;;;;5072403;28;20362;-70
2021/11/02 13:38:58;;;;;;;15.07;8.93;;;;;;;;;;5072170;28;20086;-70
2021/11/02 13:41:31;;;;;;;17.65;9.68;;;;;;;;;;5073544;28;20025;-69
2021/11/02 13:44:00;;;;;;;18.58;8.75;;;;;;;;;;5071875;28;20028;-69
2021/11/02 13:46:26;;;;;;;;;;;;;;;;;;5074028;28;20017;-69
2021/11/02 13:48:53;;;;;;;15.15;8.40;;;;;;;;;;5072327;28;19953;-68
2021/11/02 13:51:19;;;;;;;15.40;8.43;;;;;;;;;;5073623;28;20024;-69
2021/11/02 13:53:45;;;;;;;18.88;8.90;;;;;;;;;;5071643;28;20499;-70
2021/11/02 13:56:13;;;;;;;15.85;7.90;;;;;;;;;;5072942;28;20037;-70
2021/11/02 13:58:39;;;;;;;19.52;8.40;;;;;;;;;;5073345;28;20047;-70
2021/11/02 14:01:06;;;;;;;18.33;7.20;;;;;;;;;;5073719;28;20028;-68
2021/11/02 14:03:44;;;;;;;16.80;8.05;;;;;;;;;;5071494;28;20078;-70
2021/11/02 14:06:11;;;;;;;15.70;7.45;;;;;;;;;;5071096;28;20459;-69
2021/11/02 14:08:37;;;;;;;14.70;7.47;;;;;;;;;;5073037;28;20441;-71
2021/11/02 14:11:17;;;;;;;15.30;7.70;;;;;;;;;;5072872;28;20072;-69
2021/11/02 14:13:44;;;;;;;13.80;7.65;;;;;;;;;;5070901;28;20048;-68
2021/11/02 14:16:11;;;;;;;16.10;8.55;;;;;;;;;;5073529;28;20036;-70
2021/11/02 14:18:39;;;;;;;16.70;8.30;;;;;;;;;;5073235;28;20043;-70
2021/11/02 14:21:05;;;;;;;16.98;8.35;;;;;;;;;;5073267;28;20128;-70
2021/11/02 14:23:31;;;;;;;20.70;9.15;;;;;;;;;;5071529;28;20104;-69
2021/11/02 14:26:16;;;;;;;14.52;8.30;;;;;;;;;;5072963;28;20028;-69
2021/11/02 14:29:10;;;;;;;18.65;8.90;;;;;;;;;;5072715;28;20024;-70
2021/11/02 14:31:40;;;;;;;15.50;8.85;;;;;;;;;;5070417;28;20032;-70
2021/11/02 14:34:10;;;;;;;15.52;8.77;;;;;;;;;;5070827;28;20052;-71
2021/11/02 14:36:40;;;;;;;15.23;8.90;;;;;;;;;;5072485;28;20154;-70
2021/11/02 14:39:07;;;;;;;16.25;9.20;;;;;;;;;;5070410;28;20035;-69
2021/11/02 14:41:35;;;;;;;15.60;9.38;;;;;;;;;;5071572;28;20034;-68
2021/11/02 14:44:16;;;;;;;17.00;9.68;;;;;;;;;;5071794;28;20039;-71
2021/11/02 14:46:49;;;;;;;16.13;9.88;;;;;;;;;;5071069;28;20024;-70
2021/11/02 14:49:30;;;;;;;15.20;9.23;;;;;;;;;;5070389;28;20016;-69
2021/11/02 14:52:10;;;;;;;14.98;8.95;;;;;;;;;;5070624;28;20112;-70
2021/11/02 14:54:39;;;;;;;15.10;9.18;;;;;;;;;;5072260;28;20107;-70
2021/11/02 14:57:21;;;;;;;16.35;9.65;;;;;;;;;;5071860;28;20041;-70
2021/11/02 14:59:55;;;;;;;17.40;9.30;;;;;;;;;;5073081;28;20530;-70
2021/11/02 15:02:41;;;;;;;15.73;9.13;;;;;;;;;;5070941;28;20506;-71
2021/11/02 15:05:12;;;;;;;15.55;9.70;;;;;;;;;;5071424;28;20027;-69
2021/11/02 15:07:41;;;;;;;17.98;9.90;;;;;;;;;;5072210;28;20020;-70
2021/11/02 15:10:12;;;;;;;16.23;9.88;;;;;;;;;;5070472;28;20029;-69
2021/11/02 15:12:38;;;;;;;17.10;10.90;;;;;;;;;;5071562;28;20035;-69
2021/11/02 15:15:05;;;;;;;19.02;11.70;;;;;;;;;;5071420;28;20395;-69
2021/11/02 15:17:31;;;;;;;16.75;10.70;;;;;;;;;;5070366;28;20028;-70
2021/11/02 15:19:57;;;;;;;17.88;10.38;;;;;;;;;;5071971;28;20454;-69
2021/11/02 15:22:24;;;;;;;18.58;9.45;;;;;;;;;;5070414;28;20069;-69
2021/11/02 15:24:50;;;;;;;18.70;9.45;;;;;;;;;;5071355;28;20028;-68
2021/11/02 15:27:21;;;;;;;19.17;10.30;;;;;;;;;;5071850;28;20077;-68
2021/11/02 15:29:49;;;;;;;18.42;9.80;;;;;;;;;;5070849;28;20023;-69
2021/11/02 15:32:16;;;;;;;18.10;9.18;;;;;;;;;;5071078;28;20384;-69
2021/11/02 15:34:45;;;;;;;16.80;8.80;;;;;;;;;;5070592;28;20426;-69
2021/11/02 15:37:13;;;;;;;16.67;8.85;;;;;;;;;;5067821;28;20108;-67
2021/11/02 15:39:39;;;;;;;19.45;8.63;;;;;;;;;;5069767;28;20388;-68
2021/11/02 15:42:19;;;;;;;17.92;9.30;;;;;;;;;;5071166;28;20428;-69
2021/11/02 15:44:45;;;;;;;16.67;8.77;;;;;;;;;;5069485;28;20024;-69
2021/11/02 15:47:15;;;;;;;15.82;8.70;;;;;;;;;;5071035;28;20076;-68
2021/11/02 15:49:42;;;;;;;16.88;8.77;;;;;;;;;;5071471;28;20769;-68
2021/11/02 15:52:08;;;;;;;17.33;8.18;;;;;;;;;;5071590;28;20438;-69
2021/11/02 15:54:44;;;;;;;17.33;8.98;;;;;;;;;;5068427;28;20020;-68
2021/11/02 15:57:10;;;;;;;16.95;8.35;;;;;;;;;;5059389;28;20037;-69
2021/11/02 15:59:36;;;;;;;17.20;8.98;;;;;;;;;;5058501;28;20430;-68
2021/11/02 16:02:03;;;;;;;17.08;8.52;;;;;;;;;;5059627;28;20025;-68
2021/11/02 16:04:29;;;;;;;16.70;8.55;;;;;;;;;;5058789;28;20012;-67
2021/11/02 16:06:58;;;;;;;17.17;8.23;;;;;;;;;;5070388;28;20530;-68
2021/11/02 16:09:34;;;;;;;16.77;8.77;;;;;;;;;;4697899;28;10000334;-69
2021/11/02 16:12:08;;;;;;;15.88;7.78;;;;;;;;;;5052618;28;20081;-67
2021/11/02 16:14:34;;;;;;;17.88;8.13;;;;;;;;;;5055005;28;20100;-67
2021/11/02 16:17:00;;;;;;;19.20;9.57;;;;;;;;;;5052836;28;20031;-67
2021/11/02 16:19:26;;;;;;;20.63;9.48;;;;;;;;;;5056401;28;20028;-67
2021/11/02 16:21:57;;;;;;;18.98;8.95;;;;;;;;;;5055864;28;20479;-67
2021/11/02 16:24:23;;;;;;;19.80;9.95;;;;;;;;;;5052100;28;20044;-68
2021/11/02 16:26:49;;;;;;;19.60;8.82;;;;;;;;;;5056780;28;20051;-68
2021/11/02 16:29:16;;;;;;;16.15;7.78;;;;;;;;;;5055875;28;20379;-67
2021/11/02 16:31:43;;;;;;;17.10;8.40;;;;;;;;;;5052975;28;20112;-69
2021/11/02 16:34:17;;;;;;;17.23;8.13;;;;;;;;;;5055099;28;20075;-68
2021/11/02 16:36:43;;;;;;;16.15;7.53;;;;;;;;;;5063525;28;20087;-68
2021/11/02 16:39:27;;;;;;;18.80;9.07;;;;;;;;;;5065298;28;20070;-66
2021/11/02 16:41:54;;;;;;;17.70;8.13;;;;;;;;;;5065576;28;20115;-68
2021/11/02 16:44:28;;;;;;;16.77;8.07;;;;;;;;;;5067096;28;20044;-67
2021/11/02 16:47:02;;;;;;;17.60;7.70;;;;;;;;;;5065102;28;20021;-71
2021/11/02 16:49:34;;;;;;;17.30;7.57;;;;;;;;;;5067295;28;20025;-69
2021/11/02 16:52:03;;;;;;;16.30;7.63;;;;;;;;;;5065316;28;20077;-67
2021/11/02 16:54:32;;;;;;;15.65;7.88;;;;;;;;;;5066738;28;20024;-67
2021/11/02 16:56:58;;;;;;;22.40;9.25;;;;;;;;;;5064736;28;20032;-67
2021/11/02 16:59:39;;;;;;;16.40;7.95;;;;;;;;;;5065720;28;20036;-68
2021/11/02 17:02:15;;;;;;;16.10;7.72;;;;;;;;;;5063954;28;20098;-66
2021/11/02 17:04:42;;;;;;;20.08;8.88;;;;;;;;;;5065082;28;20027;-66
2021/11/02 17:07:09;;;;;;;17.58;8.95;;;;;;;;;;5066893;28;20498;-69
2021/11/02 17:09:35;;;;;;;20.17;9.20;;;;;;;;;;5048578;28;20031;-68
2021/11/02 17:12:02;;;;;;;18.35;8.77;;;;;;;;;;5048938;28;20144;-68
2021/11/02 17:14:28;;;;;;;17.70;8.43;;;;;;;;;;5050486;28;20029;-69
2021/11/02 17:16:55;;;;;;;17.10;8.70;;;;;;;;;;5051835;28;20029;-70
2021/11/02 17:19:22;;;;;;;18.20;7.78;;;;;;;;;;5070887;28;20111;-68
2021/11/02 17:21:50;;;;;;;17.08;7.68;;;;;;;;;;5070531;28;20055;-68
2021/11/02 17:24:16;;;;;;;19.38;7.80;;;;;;;;;;5069376;28;20247;-68
2021/11/02 17:26:42;;;;;;;16.27;6.63;;;;;;;;;;5068988;28;20044;-69
2021/11/02 17:29:08;;;;;;;15.93;7.50;;;;;;;;;;5070608;28;20028;-67
2021/11/02 17:31:37;;;;;;;16.02;7.65;;;;;;;;;;5068942;28;20063;-68
2021/11/02 17:34:07;;;;;;;17.85;7.10;;;;;;;;;;5048596;28;20024;-67
2021/11/02 17:36:35;;;;;;;15.73;6.47;;;;;;;;;;5050834;28;20404;-67
2021/11/02 17:39:02;;;;;;;13.80;6.65;;;;;;;;;;5050574;28;20428;-67
2021/11/02 17:41:29;;;;;;;14.73;7.00;;;;;;;;;;5050259;28;20116;-67
2021/11/02 17:43:56;;;;;;;12.85;6.22;;;;;;;;;;5050746;28;20036;-67
2021/11/02 17:46:22;;;;;;;14.73;6.70;;;;;;;;;;5050643;28;20127;-67
2021/11/02 17:48:48;;;;;;;15.60;6.30;;;;;;;;;;5049112;28;20029;-68
2021/11/02 17:51:15;;;;;;;14.52;6.57;;;;;;;;;;5049004;28;20029;-68
2021/11/02 17:53:42;;;;;;;14.52;6.40;;;;;;;;;;5048574;28;20121;-68
2021/11/02 17:56:09;;;;;;;15.75;6.20;;;;;;;;;;5049097;28;20033;-68
2021/11/02 17:58:37;;;;;;;13.90;5.90;;;;;;;;;;5050188;28;20071;-68
2021/11/02 18:01:04;;;;;;;15.13;6.10;;;;;;;;;;5059742;28;20080;-68
2021/11/02 18:03:30;;;;;;;14.40;6.03;;;;;;;;;;5060822;28;20095;-68
2021/11/02 18:06:01;;;;;;;13.73;6.00;;;;;;;;;;5059108;28;20052;-67
2021/11/02 18:08:27;;;;;;;12.55;5.90;;;;;;;;;;5061728;28;20021;-67
2021/11/02 18:10:53;;;;;;;13.50;5.80;;;;;;;;;;5056166;28;20474;-68
2021/11/02 18:13:20;;;;;;;13.27;5.85;;;;;;;;;;5066960;28;20025;-67
2021/11/02 18:15:47;;;;;;;13.07;5.60;;;;;;;;;;5058561;28;20453;-68
2021/11/02 18:18:14;;;;;;;12.23;5.28;;;;;;;;;;5059145;28;20025;-68
2021/11/02 18:20:41;;;;;;;15.70;5.78;;;;;;;;;;5055458;28;20052;-67
2021/11/02 18:23:07;;;;;;;15.63;5.85;;;;;;;;;;5058388;28;20025;-68
2021/11/02 18:25:33;;;;;;;13.65;5.38;;;;;;;;;;5063882;28;20036;-68
2021/11/02 18:27:59;;;;;;;12.60;5.45;;;;;;;;;;5069538;28;20040;-68
2021/11/02 18:30:26;;;;;;;14.63;6.10;;;;;;;;;;5061808;28;20021;-67
2021/11/02 18:32:52;;;;;;;15.90;5.63;;;;;;;;;;5049741;28;20075;-67
2021/11/02 18:35:19;;;;;;;14.25;5.70;;;;;;;;;;5048785;28;20065;-67
2021/11/02 18:37:46;;;;;;;13.52;5.85;;;;;;;;;;5049825;28;20029;-69
2021/11/02 18:40:12;;;;;;;19.15;6.10;;;;;;;;;;5050295;28;20140;-66
2021/11/02 18:42:48;;;;;;;14.18;6.00;;;;;;;;;;5053044;28;20439;-67
2021/11/02 18:45:15;;;;;;;14.55;5.53;;;;;;;;;;5050075;28;20048;-67
2021/11/02 18:47:41;;;;;;;14.45;5.43;;;;;;;;;;5050872;28;20048;-68
2021/11/02 18:50:08;;;;;;;15.80;6.10;;;;;;;;;;5049484;28;20728;-68
2021/11/02 18:52:34;;;;;;;15.75;5.85;;;;;;;;;;5050664;28;20029;-69
2021/11/02 18:55:00;;;;;;;15.68;6.13;;;;;;;;;;5049513;28;20075;-69
2021/11/02 18:57:26;;;;;;;15.18;5.95;;;;;;;;;;5048561;28;20079;-67
2021/11/02 18:59:52;;;;;;;15.23;5.75;;;;;;;;;;5049467;28;20793;-67
2021/11/02 19:02:18;;;;;;;17.70;6.25;;;;;;;;;;5048182;28;20047;-67
2021/11/02 19:04:46;;;;;;;17.02;6.65;;;;;;;;;;5049486;28;20603;-68
2021/11/02 19:07:12;;;;;;;16.00;6.30;;;;;;;;;;5049327;28;20021;-68
2021/11/02 19:09:38;;;;;;;15.75;6.80;;;;;;;;;;5047510;28;20029;-68
2021/11/02 19:12:05;;;;;;;16.98;6.95;;;;;;;;;;5048947;28;20489;-69
2021/11/02 19:14:31;;;;;;;17.15;7.30;;;;;;;;;;5047576;28;20055;-69
2021/11/02 19:16:57;;;;;;;18.25;6.85;;;;;;;;;;5052610;28;20024;-67
2021/11/02 19:19:23;;;;;;;17.98;7.65;;;;;;;;;;5069118;28;20020;-68
2021/11/02 19:21:49;;;;;;;18.75;8.35;;;;;;;;;;5069038;28;20483;-68
2021/11/02 19:24:15;;;;;;;18.98;8.85;;;;;;;;;;5067085;28;20020;-68
2021/11/02 19:26:41;;;;;;;19.67;8.65;;;;;;;;;;5067195;28;20024;-66
2021/11/02 19:29:07;;;;;;;20.75;9.77;;;;;;;;;;5067330;28;20400;-69
2021/11/02 19:31:36;;;;;;;20.45;10.35;;;;;;;;;;5067400;28;20032;-69
2021/11/02 19:34:03;;;;;;;21.23;10.00;;;;;;;;;;5066131;28;20074;-67
2021/11/02 19:36:29;;;;;;;22.50;10.07;;;;;;;;;;5048861;28;20411;-67
2021/11/02 19:38:55;;;;;;;20.23;9.68;;;;;;;;;;5047433;28;20412;-67
2021/11/02 19:41:21;;;;;;;21.58;10.63;;;;;;;;;;5047081;28;20041;-67
2021/11/02 19:43:47;;;;;;;22.77;10.07;;;;;;;;;;5046623;28;20044;-66
2021/11/02 19:46:14;;;;;;;22.92;11.00;;;;;;;;;;5047031;28;20021;-67